createdAt,value
2023-08-17T00:01:35.593Z,25.38
2023-08-17T00:04:02.286Z,25.48
2023-08-17T00:06:29.029Z,25.83
2023-08-17T00:08:55.755Z,25.91
2023-08-17T00:11:22.687Z,26.06
2023-08-17T00:13:49.490Z,26.03
2023-08-17T00:16:16.235Z,25.91
2023-08-17T00:18:43.032Z,25.92
2023-08-17T00:21:09.823Z,25.92
2023-08-17T00:23:36.713Z,25.90
2023-08-17T00:26:03.508Z,25.88
2023-08-17T00:28:30.118Z,25.93
2023-08-17T00:30:56.688Z,25.90
2023-08-17T00:33:23.357Z,25.71
2023-08-17T00:35:49.960Z,25.30
2023-08-17T00:38:16.674Z,24.96
2023-08-17T00:40:43.411Z,24.83
2023-08-17T00:43:10.404Z,24.78
2023-08-17T00:45:37.606Z,24.80
2023-08-17T00:48:08.809Z,24.83
2023-08-17T00:50:37.801Z,24.87
2023-08-17T00:53:05.165Z,24.78
2023-08-17T00:55:31.912Z,24.80
2023-08-17T00:57:59.273Z,24.82
2023-08-17T01:00:30.030Z,24.81
2023-08-17T01:02:57.120Z,24.79
2023-08-17T01:05:24.868Z,24.82
2023-08-17T01:07:51.538Z,24.80
2023-08-17T01:10:19.004Z,24.85
2023-08-17T01:12:56.002Z,24.88
2023-08-17T01:15:29.321Z,24.92
2023-08-17T01:18:01.943Z,24.93
2023-08-17T01:20:29.548Z,24.93
2023-08-17T01:22:59.166Z,24.91
2023-08-17T01:25:25.793Z,24.96
2023-08-17T01:27:56.303Z,24.97
2023-08-17T01:30:22.927Z,25.07
2023-08-17T01:32:59.217Z,25.05
2023-08-17T01:35:35.206Z,25.05
2023-08-17T01:38:08.050Z,24.99
2023-08-17T01:40:35.518Z,24.91
2023-08-17T01:43:03.569Z,24.89
2023-08-17T01:45:30.416Z,24.84
2023-08-17T01:47:57.242Z,24.83
2023-08-17T01:50:23.860Z,24.86
2023-08-17T01:52:52.292Z,24.90
2023-08-17T01:55:19.810Z,24.91
2023-08-17T01:57:46.373Z,24.82
2023-08-17T02:00:13.521Z,24.82
2023-08-17T02:02:40.262Z,24.81
2023-08-17T02:05:07.486Z,24.88
2023-08-17T02:07:34.148Z,24.98
2023-08-17T02:10:00.798Z,25.00
2023-08-17T02:12:27.417Z,24.98
2023-08-17T02:14:54.541Z,25.03
2023-08-17T02:17:22.638Z,25.02
2023-08-17T02:19:49.332Z,24.92
2023-08-17T02:22:16.302Z,24.92
2023-08-17T02:24:42.932Z,24.91
2023-08-17T02:27:10.521Z,24.85
2023-08-17T02:29:37.108Z,24.76
2023-08-17T02:32:03.821Z,24.70
2023-08-17T02:34:30.427Z,24.60
2023-08-17T02:36:57.035Z,24.48
2023-08-17T02:39:23.652Z,24.29
2023-08-17T02:41:50.646Z,24.17
2023-08-17T02:44:17.277Z,24.06
2023-08-17T02:46:43.887Z,24.01
2023-08-17T02:49:10.557Z,23.99
2023-08-17T02:51:37.128Z,23.94
2023-08-17T02:54:03.823Z,23.91
2023-08-17T02:56:30.414Z,23.90
2023-08-17T02:58:57.006Z,23.87
2023-08-17T03:01:23.599Z,23.87
2023-08-17T03:03:50.188Z,23.89
2023-08-17T03:06:16.745Z,23.89
2023-08-17T03:08:43.370Z,23.91
2023-08-17T05:02:32.139Z,23.32
2023-08-17T05:04:58.788Z,23.40
2023-08-17T05:07:25.731Z,23.49
2023-08-17T05:09:52.580Z,23.50
2023-08-17T05:12:19.147Z,23.55
2023-08-17T05:14:45.715Z,23.62
2023-08-17T05:17:12.394Z,23.78
2023-08-17T05:19:40.682Z,24.31
2023-08-17T05:22:11.808Z,25.57
2023-08-17T05:24:38.868Z,26.11
2023-08-17T05:27:06.091Z,26.20
2023-08-17T05:29:35.755Z,26.93
2023-08-17T05:32:02.321Z,27.19
2023-08-17T05:34:28.945Z,27.22
2023-08-17T05:36:55.574Z,27.49
2023-08-17T05:39:22.165Z,27.32
2023-08-17T05:41:48.817Z,27.02
2023-08-17T05:44:16.295Z,27.56
2023-08-17T05:46:42.990Z,28.08
2023-08-17T05:49:09.697Z,28.65
2023-08-17T05:51:36.315Z,28.90
2023-08-17T05:54:03.028Z,28.60
2023-08-17T05:56:29.668Z,28.81
2023-08-17T05:58:56.301Z,29.14
2023-08-17T06:01:23.254Z,29.57
2023-08-17T06:03:50.896Z,29.64
2023-08-17T06:06:17.589Z,29.89
2023-08-17T06:08:44.196Z,30.31
2023-08-17T06:11:10.786Z,30.32
2023-08-17T06:13:37.681Z,30.18
2023-08-17T06:16:04.449Z,30.16
2023-08-17T06:18:31.058Z,30.52
2023-08-17T06:20:57.667Z,30.72
2023-08-17T06:23:25.106Z,30.87
2023-08-17T06:25:51.708Z,30.98
2023-08-17T06:28:18.364Z,31.14
2023-08-17T06:30:45.057Z,31.12
2023-08-17T06:33:11.777Z,31.47
2023-08-17T06:35:38.389Z,31.58
2023-08-17T06:38:04.962Z,31.65
2023-08-17T06:40:31.512Z,31.77
2023-08-17T06:42:58.056Z,32.05
2023-08-17T06:45:24.683Z,32.21
2023-08-17T06:47:51.498Z,32.49
2023-08-17T06:50:18.225Z,32.45
2023-08-17T06:52:44.797Z,32.68
2023-08-17T06:55:12.557Z,32.54
2023-08-17T06:57:39.244Z,32.64
2023-08-17T07:00:06.801Z,32.96
2023-08-17T07:02:50.660Z,33.08
2023-08-17T07:05:22.052Z,33.49
2023-08-17T07:07:49.243Z,33.12
2023-08-17T07:10:15.875Z,33.07
2023-08-17T07:12:42.485Z,32.65
2023-08-17T07:15:10.701Z,32.70
2023-08-17T07:17:40.762Z,33.14
2023-08-17T07:20:16.897Z,33.34
2023-08-17T07:22:48.028Z,33.50
2023-08-17T07:25:16.535Z,33.18
2023-08-17T07:27:44.362Z,33.46
2023-08-17T07:30:12.976Z,33.49
2023-08-17T07:32:39.605Z,33.73
2023-08-17T07:35:09.730Z,33.43
2023-08-17T07:37:37.085Z,33.20
2023-08-17T07:40:06.825Z,33.51
2023-08-17T07:42:33.535Z,33.51
2023-08-17T07:45:00.411Z,33.87
2023-08-17T07:47:27.382Z,34.00
2023-08-17T07:49:54.380Z,33.83
2023-08-17T07:52:21.128Z,34.38
2023-08-17T07:54:47.768Z,34.23
2023-08-17T07:57:14.494Z,33.40
2023-08-17T07:59:41.320Z,34.49
2023-08-17T08:02:11.107Z,34.15
2023-08-17T08:04:37.715Z,33.15
2023-08-17T08:07:35.217Z,31.31
2023-08-17T08:10:03.382Z,31.45
2023-08-17T08:12:30.096Z,31.98
2023-08-17T08:14:56.757Z,32.89
2023-08-17T08:17:23.593Z,32.95
2023-08-17T08:19:54.826Z,30.83
2023-08-17T08:22:21.405Z,31.23
2023-08-17T08:24:48.000Z,32.97
2023-08-17T08:27:14.570Z,33.26
2023-08-17T08:29:43.016Z,33.76
2023-08-17T08:32:09.665Z,32.67
2023-08-17T08:34:36.286Z,34.46
2023-08-17T08:37:02.924Z,35.54
2023-08-17T08:39:29.591Z,35.83
2023-08-17T08:41:56.878Z,36.47
2023-08-17T08:44:24.070Z,36.63
2023-08-17T08:46:50.842Z,36.07
2023-08-17T08:49:23.682Z,33.61
2023-08-17T08:51:52.619Z,34.57
2023-08-17T08:54:26.297Z,35.95
2023-08-17T08:56:58.566Z,36.60
2023-08-17T08:59:28.172Z,36.27
2023-08-17T09:01:57.502Z,34.93
2023-08-17T09:04:25.222Z,36.12
2023-08-17T09:06:52.460Z,34.68
2023-08-17T09:09:19.697Z,32.45
2023-08-17T09:11:46.383Z,32.27
2023-08-17T09:14:12.998Z,33.00
2023-08-17T09:16:40.110Z,34.01
2023-08-17T09:19:07.482Z,34.03
2023-08-17T09:21:34.290Z,34.43
2023-08-17T09:24:02.192Z,34.29
2023-08-17T09:26:35.624Z,30.74
2023-08-17T09:29:17.016Z,32.19
2023-08-17T09:31:44.217Z,33.52
2023-08-17T09:34:12.464Z,33.57
2023-08-17T09:36:40.861Z,32.05
2023-08-17T09:39:07.471Z,32.59
2023-08-17T09:41:43.788Z,33.55
2023-08-17T09:44:10.732Z,34.21
2023-08-17T09:46:37.492Z,35.65
2023-08-17T09:49:08.070Z,35.94
2023-08-17T09:51:35.004Z,36.65
2023-08-17T09:54:02.204Z,34.91
2023-08-17T09:56:30.694Z,34.36
2023-08-17T09:58:57.294Z,35.32
2023-08-17T10:01:25.191Z,36.33
2023-08-17T10:03:54.325Z,36.71
2023-08-17T10:06:27.467Z,36.70
2023-08-17T10:08:57.871Z,34.81
2023-08-17T10:11:27.330Z,32.05
2023-08-17T10:14:12.118Z,32.50
2023-08-17T10:16:55.161Z,31.73
2023-08-17T10:19:44.321Z,32.79
2023-08-17T10:22:19.824Z,31.73
2023-08-17T10:24:48.471Z,32.81
2023-08-17T10:27:15.616Z,33.80
2023-08-17T10:29:44.485Z,33.72
2023-08-17T10:32:16.733Z,32.90
2023-08-17T10:34:44.702Z,32.59
2023-08-17T10:37:12.778Z,33.71
2023-08-17T10:39:46.665Z,33.62
2023-08-17T10:42:20.881Z,33.98
2023-08-17T10:44:49.541Z,34.40
2023-08-17T10:47:36.552Z,33.97
2023-08-17T10:50:23.926Z,34.33
2023-08-17T10:52:51.912Z,34.40
2023-08-17T10:55:21.029Z,34.05
2023-08-17T10:57:47.624Z,32.70
2023-08-17T11:00:28.570Z,33.12
2023-08-17T11:03:01.953Z,32.52
2023-08-17T11:05:54.961Z,33.12
2023-08-17T11:08:30.288Z,33.48
2023-08-17T11:11:04.884Z,33.43
2023-08-17T11:13:34.183Z,33.61
2023-08-17T11:16:04.083Z,33.09
2023-08-17T11:18:35.142Z,33.00
2023-08-17T11:21:04.855Z,32.82
2023-08-17T11:23:33.006Z,32.88
2023-08-17T11:26:00.908Z,32.89
2023-08-17T11:28:28.067Z,33.00
2023-08-17T11:31:02.684Z,32.95
2023-08-17T11:33:31.649Z,33.11
2023-08-17T11:38:36.034Z,32.90
2023-08-17T11:41:07.580Z,33.08
2023-08-17T11:43:34.463Z,33.17
2023-08-17T11:46:02.809Z,33.34
2023-08-17T11:48:36.378Z,33.71
2023-08-17T11:51:04.998Z,33.90
2023-08-17T11:53:40.884Z,32.90
2023-08-17T11:56:10.645Z,32.68
2023-08-17T11:58:45.392Z,33.23
2023-08-17T12:01:14.193Z,32.75
2023-08-17T12:03:44.411Z,32.79
2023-08-17T12:06:14.747Z,32.73
2023-08-17T12:08:48.933Z,33.18
2023-08-17T12:11:19.432Z,33.88
2023-08-17T12:13:53.929Z,34.08
2023-08-17T12:16:21.922Z,33.08
2023-08-17T12:18:53.395Z,32.97
2023-08-17T12:21:26.040Z,32.83
2023-08-17T12:23:53.062Z,32.45
2023-08-17T12:26:21.037Z,32.44
2023-08-17T12:28:47.619Z,32.80
2023-08-17T12:31:14.301Z,33.25
2023-08-17T12:33:40.906Z,33.47
2023-08-17T12:36:08.022Z,32.71
2023-08-17T12:38:34.798Z,33.19
2023-08-17T12:41:06.823Z,33.97
2023-08-17T12:43:33.971Z,33.89
2023-08-17T12:46:00.605Z,33.91
2023-08-17T12:48:27.171Z,34.32
2023-08-17T12:50:53.755Z,34.71
2023-08-17T12:53:20.339Z,34.21
2023-08-17T12:55:47.221Z,33.10
2023-08-17T12:58:13.802Z,32.99
2023-08-17T13:00:40.469Z,33.03
2023-08-17T13:03:07.873Z,32.52
2023-08-17T13:05:35.957Z,32.84
2023-08-17T13:08:02.586Z,33.27
2023-08-17T13:10:30.235Z,32.92
2023-08-17T13:13:00.363Z,33.25
2023-08-17T13:15:27.478Z,33.30
2023-08-17T13:17:54.118Z,32.95
2023-08-17T13:20:20.701Z,33.67
2023-08-17T13:22:48.029Z,32.92
2023-08-17T13:25:14.605Z,32.98
2023-08-17T13:27:41.310Z,33.62
2023-08-17T13:30:08.661Z,33.69
2023-08-17T13:32:35.366Z,33.96
2023-08-17T13:35:05.363Z,34.29
2023-08-17T13:37:32.282Z,34.49
2023-08-17T13:39:59.709Z,34.54
2023-08-17T13:42:26.621Z,34.72
2023-08-17T13:44:53.662Z,33.96
2023-08-17T13:47:20.371Z,33.20
2023-08-17T13:49:46.999Z,33.33
2023-08-17T13:52:13.690Z,33.50
2023-08-17T13:54:40.568Z,33.62
2023-08-17T13:57:07.342Z,33.95
2023-08-17T13:59:35.074Z,33.65
2023-08-17T14:02:01.572Z,33.69
2023-08-17T14:04:28.220Z,33.84
2023-08-17T14:06:56.447Z,33.88
2023-08-17T14:09:23.276Z,33.67
2023-08-17T14:11:49.960Z,33.41
2023-08-17T14:14:16.629Z,33.37
2023-08-17T14:16:43.898Z,33.15
2023-08-17T14:19:10.699Z,33.22
2023-08-17T14:21:37.245Z,33.18
2023-08-17T14:24:04.170Z,33.33
2023-08-17T14:26:32.065Z,33.40
2023-08-17T14:28:59.932Z,33.55
2023-08-17T14:31:26.582Z,33.65
2023-08-17T14:33:53.366Z,33.37
2023-08-17T14:36:20.972Z,33.13
2023-08-17T14:38:48.378Z,33.43
2023-08-17T14:41:15.054Z,33.62
2023-08-17T14:43:41.849Z,33.70
2023-08-17T14:46:14.321Z,33.70
2023-08-17T14:48:41.574Z,33.59
2023-08-17T14:51:08.201Z,33.46
2023-08-17T14:53:39.359Z,33.02
2023-08-17T14:56:06.312Z,32.85
2023-08-17T14:58:32.982Z,33.11
2023-08-17T15:00:59.859Z,33.34
2023-08-17T15:03:26.681Z,33.14
2023-08-17T15:05:53.472Z,33.30
2023-08-17T15:08:20.386Z,33.25
2023-08-17T15:10:49.203Z,33.28
2023-08-17T15:13:16.413Z,33.36
2023-08-17T15:15:44.241Z,33.42
2023-08-17T15:18:11.561Z,33.39
2023-08-17T15:20:38.391Z,33.25
2023-08-17T15:23:05.130Z,33.24
2023-08-17T15:25:31.806Z,33.26
2023-08-17T15:27:58.390Z,33.23
2023-08-17T15:30:25.003Z,33.18
2023-08-17T15:32:51.634Z,33.17
2023-08-17T15:35:18.251Z,33.18
2023-08-17T15:37:44.821Z,33.15
2023-08-17T15:40:12.765Z,33.08
2023-08-17T15:42:39.432Z,33.10
2023-08-17T15:45:06.467Z,33.01
2023-08-17T15:47:33.823Z,32.90
2023-08-17T15:50:01.156Z,33.01
2023-08-17T15:52:27.747Z,33.03
2023-08-17T15:54:54.374Z,33.02
2023-08-17T15:57:20.992Z,32.95
2023-08-17T15:59:51.171Z,32.85
2023-08-17T16:02:18.598Z,32.85
2023-08-17T16:04:45.352Z,32.80
2023-08-17T16:07:11.998Z,32.84
2023-08-17T16:09:39.460Z,32.82
2023-08-17T16:12:06.443Z,32.82
2023-08-17T16:14:34.245Z,32.80
2023-08-17T16:17:03.696Z,32.77
2023-08-17T16:19:30.320Z,32.75
2023-08-17T16:21:56.969Z,32.87
2023-08-17T16:26:53.180Z,32.91
2023-08-17T16:29:19.831Z,32.88
2023-08-17T16:32:09.135Z,32.58
2023-08-17T16:34:36.933Z,32.40
2023-08-17T16:37:03.750Z,32.36
2023-08-17T16:39:30.352Z,32.31
2023-08-17T16:41:59.803Z,32.28
2023-08-17T16:44:28.238Z,32.27
2023-08-17T16:46:55.511Z,32.30
2023-08-17T16:49:22.148Z,32.19
2023-08-17T16:51:48.714Z,32.14
2023-08-17T16:54:15.337Z,32.10
2023-08-17T16:56:44.572Z,32.11
2023-08-17T16:59:12.180Z,32.08
2023-08-17T17:01:39.500Z,32.06
2023-08-17T17:04:07.049Z,31.97
2023-08-17T17:06:33.701Z,31.92
2023-08-17T17:09:00.513Z,31.94
2023-08-17T17:11:27.814Z,31.90
2023-08-17T17:13:56.166Z,31.82
2023-08-17T17:16:28.003Z,31.75
2023-08-17T17:18:54.670Z,31.64
2023-08-17T17:21:21.448Z,31.52
2023-08-17T17:23:48.065Z,31.48
2023-08-17T17:26:23.877Z,31.43
2023-08-17T17:28:51.022Z,31.40
2023-08-17T17:31:17.834Z,31.42
2023-08-17T17:33:44.822Z,31.38
2023-08-17T17:36:11.551Z,31.32
2023-08-17T17:38:48.455Z,31.24
2023-08-17T17:41:16.727Z,31.14
2023-08-17T17:43:43.772Z,30.99
2023-08-17T17:46:13.407Z,30.87
2023-08-17T17:48:40.272Z,30.89
2023-08-17T17:51:07.171Z,30.74
2023-08-17T17:53:34.242Z,30.61
2023-08-17T17:56:04.391Z,30.62
2023-08-17T17:58:33.377Z,30.61
2023-08-17T18:01:00.129Z,30.57
2023-08-17T18:03:28.959Z,30.45
2023-08-17T18:05:55.957Z,30.29
2023-08-17T18:08:22.684Z,30.22
2023-08-17T18:10:49.653Z,30.17
2023-08-17T18:13:16.302Z,30.05
2023-08-17T18:15:43.598Z,29.82
2023-08-17T18:18:10.471Z,29.58
2023-08-17T18:20:37.632Z,29.47
2023-08-17T18:23:04.405Z,29.41
2023-08-17T18:25:31.058Z,29.41
2023-08-17T18:27:57.693Z,29.46
2023-08-17T18:30:24.332Z,29.42
2023-08-17T18:32:51.080Z,29.37
2023-08-17T18:35:18.914Z,29.27
2023-08-17T18:37:46.956Z,29.18
2023-08-17T18:40:13.691Z,29.25
2023-08-17T18:42:40.566Z,29.29
2023-08-17T18:45:08.117Z,29.29
2023-08-17T18:47:34.903Z,29.29
2023-08-17T18:50:02.023Z,29.33
2023-08-17T18:52:32.842Z,29.34
2023-08-17T18:55:04.298Z,29.33
2023-08-17T18:57:33.753Z,29.32
2023-08-17T19:00:02.594Z,29.30
2023-08-17T19:02:29.362Z,29.24
2023-08-17T19:04:57.420Z,29.22
2023-08-17T19:07:29.361Z,29.16
2023-08-17T19:09:56.288Z,29.03
2023-08-17T19:12:22.977Z,28.84
2023-08-17T19:14:49.573Z,28.81
2023-08-17T19:17:16.555Z,28.69
2023-08-17T19:19:43.346Z,28.64
2023-08-17T19:22:10.504Z,28.61
2023-08-17T19:24:38.566Z,28.45
2023-08-17T19:27:05.071Z,28.24
2023-08-17T19:29:31.723Z,28.01
2023-08-17T19:31:58.320Z,27.91
2023-08-17T19:34:24.973Z,27.89
2023-08-17T19:36:51.618Z,27.85
2023-08-17T19:39:19.843Z,27.78
2023-08-17T19:41:48.540Z,27.79
2023-08-17T19:44:15.639Z,27.80
2023-08-17T19:46:42.341Z,27.77
2023-08-17T19:49:09.336Z,27.75
2023-08-17T19:51:36.010Z,27.74
2023-08-17T19:54:02.619Z,27.79
2023-08-17T19:56:29.317Z,27.76
2023-08-17T19:58:55.902Z,27.71
2023-08-17T20:01:23.953Z,27.66
2023-08-17T20:03:51.519Z,27.67
2023-08-17T20:06:18.347Z,27.75
2023-08-17T20:08:46.176Z,27.75
2023-08-17T20:11:13.477Z,27.83
2023-08-17T20:13:40.099Z,27.85
2023-08-17T20:16:06.811Z,27.85
2023-08-17T20:18:33.766Z,27.84
2023-08-17T20:21:03.175Z,27.80
2023-08-17T20:23:30.360Z,27.70
2023-08-17T20:25:57.720Z,27.68
2023-08-17T20:28:25.190Z,27.68
2023-08-17T20:30:57.520Z,27.71
2023-08-17T20:33:24.977Z,27.73
2023-08-17T20:35:53.727Z,27.66
2023-08-17T20:38:21.855Z,27.55
2023-08-17T20:40:48.411Z,27.48
2023-08-17T20:43:15.476Z,27.37
2023-08-17T20:45:43.511Z,27.31
2023-08-17T20:48:10.905Z,27.29
2023-08-17T20:50:39.458Z,27.32
2023-08-17T20:53:07.128Z,27.32
2023-08-17T20:55:42.624Z,27.27
2023-08-17T20:58:10.124Z,27.26
2023-08-17T21:00:36.943Z,27.28
2023-08-17T21:03:06.830Z,27.33
2023-08-17T21:05:33.930Z,27.27
2023-08-17T21:08:01.202Z,27.16
2023-08-17T21:10:28.545Z,27.06
2023-08-17T21:12:55.207Z,26.98
2023-08-17T21:15:21.850Z,26.96
2023-08-17T21:17:48.532Z,26.90
2023-08-17T21:20:15.457Z,26.86
2023-08-17T21:22:51.983Z,26.75
2023-08-17T21:25:19.504Z,26.83
2023-08-17T21:27:46.280Z,26.92
2023-08-17T21:30:13.592Z,27.02
2023-08-17T21:32:40.964Z,27.06
2023-08-17T21:35:07.891Z,27.14
2023-08-17T21:37:34.592Z,27.09
2023-08-17T21:40:02.314Z,26.87
2023-08-17T21:42:28.929Z,26.80
2023-08-17T21:44:56.414Z,26.80
2023-08-17T21:47:26.136Z,26.83
2023-08-17T21:49:53.078Z,26.79
2023-08-17T21:52:20.867Z,26.81
2023-08-17T21:54:50.725Z,26.78
2023-08-17T21:57:18.219Z,26.65
2023-08-17T21:59:45.249Z,26.44
2023-08-17T22:02:12.022Z,26.23
2023-08-17T22:04:38.636Z,26.02
2023-08-17T22:07:05.265Z,25.84
2023-08-17T22:09:34.417Z,25.93
2023-08-17T22:12:01.398Z,25.96
2023-08-17T22:14:30.287Z,26.06
2023-08-17T22:16:57.644Z,26.17
2023-08-17T22:19:24.494Z,26.26
2023-08-17T22:21:51.222Z,26.38
2023-08-17T22:24:17.855Z,26.42
2023-08-17T22:26:44.623Z,26.43
2023-08-17T22:29:12.498Z,26.47
2023-08-17T22:31:43.346Z,26.42
2023-08-17T22:34:13.995Z,26.35
2023-08-17T22:36:40.682Z,26.20
2023-08-17T22:39:07.271Z,26.10
2023-08-17T22:41:34.117Z,26.08
2023-08-17T22:44:00.794Z,26.10
2023-08-17T22:46:27.604Z,26.10
2023-08-17T22:48:54.272Z,26.15
2023-08-17T22:51:20.932Z,26.17
2023-08-17T22:53:47.587Z,26.14
2023-08-17T22:56:14.230Z,26.24
2023-08-17T22:58:41.062Z,26.35
2023-08-17T23:01:08.772Z,26.53
2023-08-17T23:03:35.510Z,26.72
2023-08-17T23:06:02.828Z,26.90
2023-08-17T23:08:30.237Z,27.07
2023-08-17T23:11:00.915Z,27.18
2023-08-17T23:13:27.935Z,27.19
2023-08-17T23:15:55.565Z,27.05
2023-08-17T23:18:22.258Z,26.95
2023-08-17T23:20:48.989Z,26.36
2023-08-17T23:23:15.953Z,25.97
2023-08-17T23:25:43.630Z,25.37
2023-08-17T23:28:10.896Z,24.88
2023-08-17T23:30:40.206Z,24.59
2023-08-17T23:33:07.522Z,24.44
2023-08-17T23:35:35.214Z,24.32
2023-08-17T23:38:02.142Z,24.25
2023-08-17T23:40:28.850Z,24.03
2023-08-17T23:42:55.462Z,23.98
2023-08-17T23:45:22.390Z,23.92
2023-08-17T23:47:49.024Z,23.95
2023-08-17T23:50:15.767Z,23.93
2023-08-17T23:52:43.236Z,23.93
2023-08-17T23:55:09.935Z,23.98
2023-08-17T23:57:36.574Z,23.95
